Ashton, Idaho
Current Conditions -  °F | °C
As of 5:53 AM on Friday 31 Oct 2014 (Local Time) from KRXE Reporting Station
Clear Clear  
Wind Chill: 37°   Ceiling: Unl
Heat Index: 37°   Visibility: 10mi
Dew Point: 30°   Wind: 3mph
Humidity: 76%   Direction: 50°NE
Pressure: 30.03"   Gusts: NA
Location:  44.07°N, 111.45°W
Report Text: KRXE 311153Z AUTO 05003KT 10SM CLR 03/M01 A3003 RMK AO2 SLP157 T00281011 10050 20022 56012
Loading
Personal Weather Stations






























Interactive Weather Map
Tropical Storm Tracking
New forecast layout! Learn more

10-Day Weather Forecast

Advertisements
Track Severe Weather on mobile